sensor_id;sensor_type;location;lat;lon;timestamp;P1;durP1;ratioP1;P2;durP2;ratioP2
40320;SDS011;26027;51.454;6.628;2022-10-30T00:02:19;2.25;;;2.15;;
40320;SDS011;26027;51.454;6.628;2022-10-30T00:04:45;2.13;;;2.03;;
40320;SDS011;26027;51.454;6.628;2022-10-30T00:07:11;2.00;;;1.90;;
40320;SDS011;26027;51.454;6.628;2022-10-30T00:09:37;2.10;;;2.00;;
40320;SDS011;26027;51.454;6.628;2022-10-30T00:12:03;2.35;;;2.10;;
40320;SDS011;26027;51.454;6.628;2022-10-30T00:14:29;2.00;;;1.90;;
40320;SDS011;26027;51.454;6.628;2022-10-30T00:16:55;2.45;;;2.22;;
40320;SDS011;26027;51.454;6.628;2022-10-30T00:19:21;2.05;;;1.95;;
40320;SDS011;26027;51.454;6.628;2022-10-30T00:21:47;2.00;;;1.90;;
40320;SDS011;26027;51.454;6.628;2022-10-30T00:24:13;2.20;;;2.00;;
40320;SDS011;26027;51.454;6.628;2022-10-30T00:26:39;1.80;;;1.70;;
40320;SDS011;26027;51.454;6.628;2022-10-30T00:29:05;1.80;;;1.70;;
40320;SDS011;26027;51.454;6.628;2022-10-30T00:31:31;1.55;;;1.45;;
40320;SDS011;26027;51.454;6.628;2022-10-30T00:33:57;1.85;;;1.75;;
40320;SDS011;26027;51.454;6.628;2022-10-30T00:36:23;2.10;;;2.00;;
40320;SDS011;26027;51.454;6.628;2022-10-30T00:38:49;2.00;;;1.90;;
40320;SDS011;26027;51.454;6.628;2022-10-30T00:41:16;1.70;;;1.60;;
40320;SDS011;26027;51.454;6.628;2022-10-30T00:43:42;2.08;;;1.98;;
40320;SDS011;26027;51.454;6.628;2022-10-30T00:46:13;2.08;;;1.98;;
40320;SDS011;26027;51.454;6.628;2022-10-30T00:48:40;1.70;;;1.60;;
40320;SDS011;26027;51.454;6.628;2022-10-30T00:51:07;1.90;;;1.80;;
40320;SDS011;26027;51.454;6.628;2022-10-30T00:53:35;1.90;;;1.80;;
40320;SDS011;26027;51.454;6.628;2022-10-30T00:56:01;2.13;;;2.03;;
40320;SDS011;26027;51.454;6.628;2022-10-30T00:58:34;2.20;;;2.00;;
40320;SDS011;26027;51.454;6.628;2022-10-30T01:01:01;2.03;;;1.92;;
40320;SDS011;26027;51.454;6.628;2022-10-30T01:03:28;1.88;;;1.73;;
40320;SDS011;26027;51.454;6.628;2022-10-30T01:05:57;2.00;;;1.90;;
40320;SDS011;26027;51.454;6.628;2022-10-30T01:08:24;2.00;;;1.90;;
40320;SDS011;26027;51.454;6.628;2022-10-30T01:10:50;2.08;;;1.98;;
40320;SDS011;26027;51.454;6.628;2022-10-30T01:13:16;2.00;;;1.90;;
40320;SDS011;26027;51.454;6.628;2022-10-30T01:15:53;1.88;;;1.77;;
40320;SDS011;26027;51.454;6.628;2022-10-30T01:18:58;1.98;;;1.88;;
40320;SDS011;26027;51.454;6.628;2022-10-30T01:23:47;1.85;;;1.75;;
40320;SDS011;26027;51.454;6.628;2022-10-30T01:36:53;2.03;;;1.92;;
40320;SDS011;26027;51.454;6.628;2022-10-30T01:39:22;1.90;;;1.80;;
40320;SDS011;26027;51.454;6.628;2022-10-30T01:41:49;2.00;;;1.90;;
40320;SDS011;26027;51.454;6.628;2022-10-30T01:44:23;2.00;;;1.90;;
40320;SDS011;26027;51.454;6.628;2022-10-30T01:49:27;2.10;;;2.00;;
40320;SDS011;26027;51.454;6.628;2022-10-30T01:57:15;2.13;;;2.03;;
40320;SDS011;26027;51.454;6.628;2022-10-30T01:59:50;2.10;;;2.00;;
40320;SDS011;26027;51.454;6.628;2022-10-30T02:02:18;1.95;;;1.85;;
40320;SDS011;26027;51.454;6.628;2022-10-30T02:04:44;2.03;;;1.92;;
40320;SDS011;26027;51.454;6.628;2022-10-30T02:07:10;2.00;;;1.90;;
40320;SDS011;26027;51.454;6.628;2022-10-30T02:09:37;2.22;;;2.05;;
40320;SDS011;26027;51.454;6.628;2022-10-30T02:12:04;1.90;;;1.80;;
40320;SDS011;26027;51.454;6.628;2022-10-30T02:14:41;2.08;;;1.98;;
40320;SDS011;26027;51.454;6.628;2022-10-30T02:17:08;1.70;;;1.60;;
40320;SDS011;26027;51.454;6.628;2022-10-30T02:19:35;1.92;;;1.83;;
40320;SDS011;26027;51.454;6.628;2022-10-30T02:22:01;2.00;;;1.90;;
40320;SDS011;26027;51.454;6.628;2022-10-30T02:24:30;1.60;;;1.50;;
40320;SDS011;26027;51.454;6.628;2022-10-30T02:26:56;1.88;;;1.77;;
40320;SDS011;26027;51.454;6.628;2022-10-30T02:29:22;1.77;;;1.67;;
40320;SDS011;26027;51.454;6.628;2022-10-30T02:31:48;1.75;;;1.65;;
40320;SDS011;26027;51.454;6.628;2022-10-30T02:34:14;1.92;;;1.83;;
40320;SDS011;26027;51.454;6.628;2022-10-30T02:36:40;2.03;;;1.92;;
40320;SDS011;26027;51.454;6.628;2022-10-30T02:39:07;1.80;;;1.70;;
40320;SDS011;26027;51.454;6.628;2022-10-30T02:41:32;2.10;;;2.00;;
40320;SDS011;26027;51.454;6.628;2022-10-30T02:43:59;1.70;;;1.60;;
40320;SDS011;26027;51.454;6.628;2022-10-30T02:46:25;1.75;;;1.65;;
40320;SDS011;26027;51.454;6.628;2022-10-30T02:48:51;1.83;;;1.73;;
40320;SDS011;26027;51.454;6.628;2022-10-30T02:51:17;1.65;;;1.55;;
40320;SDS011;26027;51.454;6.628;2022-10-30T02:53:43;2.05;;;1.95;;
40320;SDS011;26027;51.454;6.628;2022-10-30T02:56:12;1.73;;;1.63;;
40320;SDS011;26027;51.454;6.628;2022-10-30T02:58:38;1.65;;;1.55;;
40320;SDS011;26027;51.454;6.628;2022-10-30T03:01:08;1.80;;;1.70;;
40320;SDS011;26027;51.454;6.628;2022-10-30T03:03:35;1.70;;;1.60;;
40320;SDS011;26027;51.454;6.628;2022-10-30T03:06:02;2.05;;;1.85;;
40320;SDS011;26027;51.454;6.628;2022-10-30T03:08:28;1.80;;;1.70;;
40320;SDS011;26027;51.454;6.628;2022-10-30T03:10:58;1.90;;;1.80;;
40320;SDS011;26027;51.454;6.628;2022-10-30T03:13:24;1.73;;;1.63;;
40320;SDS011;26027;51.454;6.628;2022-10-30T03:15:50;1.45;;;1.40;;
40320;SDS011;26027;51.454;6.628;2022-10-30T03:18:16;1.70;;;1.60;;
40320;SDS011;26027;51.454;6.628;2022-10-30T03:20:42;1.90;;;1.80;;
40320;SDS011;26027;51.454;6.628;2022-10-30T03:23:08;1.90;;;1.80;;
40320;SDS011;26027;51.454;6.628;2022-10-30T03:25:34;1.90;;;1.80;;
40320;SDS011;26027;51.454;6.628;2022-10-30T03:28:00;2.03;;;1.92;;
40320;SDS011;26027;51.454;6.628;2022-10-30T03:30:26;1.90;;;1.80;;
40320;SDS011;26027;51.454;6.628;2022-10-30T03:32:52;1.80;;;1.70;;
40320;SDS011;26027;51.454;6.628;2022-10-30T03:35:18;1.90;;;1.80;;
40320;SDS011;26027;51.454;6.628;2022-10-30T03:37:44;1.90;;;1.80;;
40320;SDS011;26027;51.454;6.628;2022-10-30T03:40:10;1.75;;;1.65;;
40320;SDS011;26027;51.454;6.628;2022-10-30T03:42:38;1.85;;;1.75;;
40320;SDS011;26027;51.454;6.628;2022-10-30T03:45:05;1.80;;;1.70;;
40320;SDS011;26027;51.454;6.628;2022-10-30T03:47:31;2.00;;;1.90;;
40320;SDS011;26027;51.454;6.628;2022-10-30T03:49:57;1.75;;;1.65;;
40320;SDS011;26027;51.454;6.628;2022-10-30T03:52:23;1.90;;;1.80;;
40320;SDS011;26027;51.454;6.628;2022-10-30T03:54:49;2.17;;;2.08;;
40320;SDS011;26027;51.454;6.628;2022-10-30T03:57:15;1.70;;;1.60;;
40320;SDS011;26027;51.454;6.628;2022-10-30T03:59:41;2.10;;;2.00;;
40320;SDS011;26027;51.454;6.628;2022-10-30T04:02:07;1.80;;;1.70;;
40320;SDS011;26027;51.454;6.628;2022-10-30T04:04:33;1.80;;;1.70;;
40320;SDS011;26027;51.454;6.628;2022-10-30T04:06:59;1.85;;;1.75;;
40320;SDS011;26027;51.454;6.628;2022-10-30T04:09:25;1.88;;;1.77;;
40320;SDS011;26027;51.454;6.628;2022-10-30T04:11:51;1.70;;;1.60;;
40320;SDS011;26027;51.454;6.628;2022-10-30T04:14:17;1.58;;;1.50;;
40320;SDS011;26027;51.454;6.628;2022-10-30T04:16:43;1.77;;;1.67;;
40320;SDS011;26027;51.454;6.628;2022-10-30T04:19:09;1.80;;;1.70;;
40320;SDS011;26027;51.454;6.628;2022-10-30T04:21:35;1.92;;;1.83;;
40320;SDS011;26027;51.454;6.628;2022-10-30T04:24:02;2.00;;;1.90;;
40320;SDS011;26027;51.454;6.628;2022-10-30T04:26:28;1.83;;;1.73;;
40320;SDS011;26027;51.454;6.628;2022-10-30T04:28:54;1.73;;;1.63;;
40320;SDS011;26027;51.454;6.628;2022-10-30T04:31:20;2.35;;;1.70;;
40320;SDS011;26027;51.454;6.628;2022-10-30T04:33:46;1.90;;;1.80;;
40320;SDS011;26027;51.454;6.628;2022-10-30T04:36:12;1.80;;;1.70;;
40320;SDS011;26027;51.454;6.628;2022-10-30T04:38:38;1.70;;;1.60;;
40320;SDS011;26027;51.454;6.628;2022-10-30T04:41:04;1.88;;;1.77;;
40320;SDS011;26027;51.454;6.628;2022-10-30T04:43:30;1.95;;;1.85;;
40320;SDS011;26027;51.454;6.628;2022-10-30T04:45:56;1.63;;;1.60;;
40320;SDS011;26027;51.454;6.628;2022-10-30T04:48:22;1.80;;;1.70;;
40320;SDS011;26027;51.454;6.628;2022-10-30T04:50:48;1.70;;;1.60;;
40320;SDS011;26027;51.454;6.628;2022-10-30T04:53:15;1.80;;;1.70;;
40320;SDS011;26027;51.454;6.628;2022-10-30T04:55:41;1.70;;;1.60;;
40320;SDS011;26027;51.454;6.628;2022-10-30T04:58:08;1.60;;;1.50;;
40320;SDS011;26027;51.454;6.628;2022-10-30T05:00:34;1.65;;;1.55;;
40320;SDS011;26027;51.454;6.628;2022-10-30T05:03:00;1.80;;;1.70;;
40320;SDS011;26027;51.454;6.628;2022-10-30T05:05:27;1.55;;;1.52;;
40320;SDS011;26027;51.454;6.628;2022-10-30T05:07:53;1.80;;;1.70;;
40320;SDS011;26027;51.454;6.628;2022-10-30T05:10:19;1.80;;;1.70;;
40320;SDS011;26027;51.454;6.628;2022-10-30T05:12:45;1.83;;;1.73;;
40320;SDS011;26027;51.454;6.628;2022-10-30T05:15:12;1.70;;;1.60;;
40320;SDS011;26027;51.454;6.628;2022-10-30T05:17:38;1.80;;;1.70;;
40320;SDS011;26027;51.454;6.628;2022-10-30T05:20:05;1.95;;;1.85;;
40320;SDS011;26027;51.454;6.628;2022-10-30T05:22:31;1.77;;;1.67;;
40320;SDS011;26027;51.454;6.628;2022-10-30T05:24:57;1.85;;;1.75;;
40320;SDS011;26027;51.454;6.628;2022-10-30T05:27:23;1.70;;;1.60;;
40320;SDS011;26027;51.454;6.628;2022-10-30T05:29:49;1.85;;;1.75;;
40320;SDS011;26027;51.454;6.628;2022-10-30T05:32:15;1.70;;;1.60;;
40320;SDS011;26027;51.454;6.628;2022-10-30T05:34:41;1.80;;;1.70;;
40320;SDS011;26027;51.454;6.628;2022-10-30T05:37:07;1.80;;;1.70;;
40320;SDS011;26027;51.454;6.628;2022-10-30T05:39:33;1.60;;;1.50;;
40320;SDS011;26027;51.454;6.628;2022-10-30T05:41:59;1.33;;;1.33;;
40320;SDS011;26027;51.454;6.628;2022-10-30T05:44:25;1.75;;;1.65;;
40320;SDS011;26027;51.454;6.628;2022-10-30T05:46:51;1.60;;;1.50;;
40320;SDS011;26027;51.454;6.628;2022-10-30T05:49:17;1.73;;;1.63;;
40320;SDS011;26027;51.454;6.628;2022-10-30T05:51:43;1.70;;;1.60;;
40320;SDS011;26027;51.454;6.628;2022-10-30T05:54:09;1.77;;;1.67;;
40320;SDS011;26027;51.454;6.628;2022-10-30T05:56:35;1.77;;;1.67;;
40320;SDS011;26027;51.454;6.628;2022-10-30T05:59:01;1.30;;;1.30;;
40320;SDS011;26027;51.454;6.628;2022-10-30T06:01:27;1.60;;;1.50;;
40320;SDS011;26027;51.454;6.628;2022-10-30T06:03:53;1.60;;;1.50;;
40320;SDS011;26027;51.454;6.628;2022-10-30T06:06:19;1.55;;;1.45;;
40320;SDS011;26027;51.454;6.628;2022-10-30T06:08:45;1.70;;;1.70;;
40320;SDS011;26027;51.454;6.628;2022-10-30T06:11:11;1.40;;;1.40;;
40320;SDS011;26027;51.454;6.628;2022-10-30T06:13:37;1.80;;;1.70;;
40320;SDS011;26027;51.454;6.628;2022-10-30T06:16:04;1.85;;;1.75;;
40320;SDS011;26027;51.454;6.628;2022-10-30T06:18:30;1.58;;;1.48;;
40320;SDS011;26027;51.454;6.628;2022-10-30T06:20:56;1.67;;;1.58;;
40320;SDS011;26027;51.454;6.628;2022-10-30T06:23:22;1.85;;;1.75;;
40320;SDS011;26027;51.454;6.628;2022-10-30T06:25:48;1.70;;;1.60;;
40320;SDS011;26027;51.454;6.628;2022-10-30T06:28:14;1.35;;;1.35;;
40320;SDS011;26027;51.454;6.628;2022-10-30T06:30:40;1.50;;;1.50;;
40320;SDS011;26027;51.454;6.628;2022-10-30T06:33:06;1.80;;;1.70;;
40320;SDS011;26027;51.454;6.628;2022-10-30T06:35:32;2.20;;;2.05;;
40320;SDS011;26027;51.454;6.628;2022-10-30T06:37:59;1.70;;;1.60;;
40320;SDS011;26027;51.454;6.628;2022-10-30T06:40:25;1.70;;;1.60;;
40320;SDS011;26027;51.454;6.628;2022-10-30T06:42:52;1.80;;;1.70;;
40320;SDS011;26027;51.454;6.628;2022-10-30T06:45:19;1.60;;;1.55;;
40320;SDS011;26027;51.454;6.628;2022-10-30T06:47:45;1.60;;;1.50;;
40320;SDS011;26027;51.454;6.628;2022-10-30T06:50:12;1.40;;;1.40;;
40320;SDS011;26027;51.454;6.628;2022-10-30T06:52:39;1.90;;;1.80;;
40320;SDS011;26027;51.454;6.628;2022-10-30T06:55:05;1.80;;;1.70;;
40320;SDS011;26027;51.454;6.628;2022-10-30T06:57:31;1.88;;;1.77;;
40320;SDS011;26027;51.454;6.628;2022-10-30T06:59:57;1.60;;;1.50;;
40320;SDS011;26027;51.454;6.628;2022-10-30T07:02:23;1.55;;;1.45;;
40320;SDS011;26027;51.454;6.628;2022-10-30T07:04:49;1.88;;;1.77;;
40320;SDS011;26027;51.454;6.628;2022-10-30T07:07:15;1.48;;;1.48;;
40320;SDS011;26027;51.454;6.628;2022-10-30T07:09:42;2.00;;;1.90;;
40320;SDS011;26027;51.454;6.628;2022-10-30T07:12:08;1.30;;;1.30;;
40320;SDS011;26027;51.454;6.628;2022-10-30T07:14:34;1.50;;;1.40;;
40320;SDS011;26027;51.454;6.628;2022-10-30T07:17:00;1.30;;;1.30;;
40320;SDS011;26027;51.454;6.628;2022-10-30T07:19:26;1.70;;;1.60;;
40320;SDS011;26027;51.454;6.628;2022-10-30T07:21:52;1.65;;;1.55;;
40320;SDS011;26027;51.454;6.628;2022-10-30T07:24:18;1.52;;;1.45;;
40320;SDS011;26027;51.454;6.628;2022-10-30T07:26:44;1.70;;;1.60;;
40320;SDS011;26027;51.454;6.628;2022-10-30T07:29:10;1.63;;;1.52;;
40320;SDS011;26027;51.454;6.628;2022-10-30T07:31:36;1.50;;;1.50;;
40320;SDS011;26027;51.454;6.628;2022-10-30T07:34:02;1.55;;;1.50;;
40320;SDS011;26027;51.454;6.628;2022-10-30T07:36:28;1.73;;;1.63;;
40320;SDS011;26027;51.454;6.628;2022-10-30T07:38:54;1.42;;;1.42;;
40320;SDS011;26027;51.454;6.628;2022-10-30T07:41:20;1.88;;;1.77;;
40320;SDS011;26027;51.454;6.628;2022-10-30T07:43:46;1.55;;;1.48;;
40320;SDS011;26027;51.454;6.628;2022-10-30T07:46:13;1.50;;;1.45;;
40320;SDS011;26027;51.454;6.628;2022-10-30T07:48:39;1.75;;;1.60;;
40320;SDS011;26027;51.454;6.628;2022-10-30T07:51:05;1.77;;;1.67;;
40320;SDS011;26027;51.454;6.628;2022-10-30T07:53:32;1.48;;;1.40;;
40320;SDS011;26027;51.454;6.628;2022-10-30T07:55:58;1.70;;;1.60;;
40320;SDS011;26027;51.454;6.628;2022-10-30T07:58:24;1.70;;;1.60;;
40320;SDS011;26027;51.454;6.628;2022-10-30T08:00:50;1.90;;;1.80;;
40320;SDS011;26027;51.454;6.628;2022-10-30T08:03:16;1.77;;;1.67;;
40320;SDS011;26027;51.454;6.628;2022-10-30T08:05:42;1.60;;;1.50;;
40320;SDS011;26027;51.454;6.628;2022-10-30T08:08:08;1.60;;;1.50;;
40320;SDS011;26027;51.454;6.628;2022-10-30T08:10:34;1.65;;;1.55;;
40320;SDS011;26027;51.454;6.628;2022-10-30T08:13:00;1.42;;;1.38;;
40320;SDS011;26027;51.454;6.628;2022-10-30T08:15:26;1.70;;;1.60;;
40320;SDS011;26027;51.454;6.628;2022-10-30T08:17:53;1.55;;;1.55;;
40320;SDS011;26027;51.454;6.628;2022-10-30T08:20:21;1.50;;;1.40;;
40320;SDS011;26027;51.454;6.628;2022-10-30T08:22:48;1.52;;;1.45;;
40320;SDS011;26027;51.454;6.628;2022-10-30T08:25:15;1.70;;;1.60;;
40320;SDS011;26027;51.454;6.628;2022-10-30T08:27:55;1.48;;;1.45;;
40320;SDS011;26027;51.454;6.628;2022-10-30T08:30:22;1.35;;;1.35;;
40320;SDS011;26027;51.454;6.628;2022-10-30T08:32:49;1.60;;;1.50;;
40320;SDS011;26027;51.454;6.628;2022-10-30T08:35:15;1.52;;;1.42;;
40320;SDS011;26027;51.454;6.628;2022-10-30T08:37:42;1.40;;;1.40;;
40320;SDS011;26027;51.454;6.628;2022-10-30T08:40:09;1.40;;;1.40;;
40320;SDS011;26027;51.454;6.628;2022-10-30T08:42:35;1.10;;;1.10;;
40320;SDS011;26027;51.454;6.628;2022-10-30T08:45:02;1.30;;;1.30;;
40320;SDS011;26027;51.454;6.628;2022-10-30T08:47:28;1.40;;;1.40;;
40320;SDS011;26027;51.454;6.628;2022-10-30T08:49:54;1.30;;;1.30;;
40320;SDS011;26027;51.454;6.628;2022-10-30T08:52:20;1.70;;;1.60;;
40320;SDS011;26027;51.454;6.628;2022-10-30T08:54:46;1.30;;;1.30;;
40320;SDS011;26027;51.454;6.628;2022-10-30T08:57:12;1.50;;;1.40;;
40320;SDS011;26027;51.454;6.628;2022-10-30T08:59:38;1.30;;;1.30;;
40320;SDS011;26027;51.454;6.628;2022-10-30T09:02:04;1.25;;;1.25;;
40320;SDS011;26027;51.454;6.628;2022-10-30T09:04:31;1.50;;;1.40;;
40320;SDS011;26027;51.454;6.628;2022-10-30T09:06:59;1.60;;;1.50;;
40320;SDS011;26027;51.454;6.628;2022-10-30T09:09:25;1.52;;;1.42;;
40320;SDS011;26027;51.454;6.628;2022-10-30T09:11:51;1.52;;;1.48;;
40320;SDS011;26027;51.454;6.628;2022-10-30T09:14:17;1.20;;;1.20;;
40320;SDS011;26027;51.454;6.628;2022-10-30T09:16:43;1.23;;;1.23;;
40320;SDS011;26027;51.454;6.628;2022-10-30T09:19:09;1.70;;;1.60;;
40320;SDS011;26027;51.454;6.628;2022-10-30T09:21:35;1.70;;;1.60;;
40320;SDS011;26027;51.454;6.628;2022-10-30T09:24:01;1.30;;;1.30;;
40320;SDS011;26027;51.454;6.628;2022-10-30T09:26:28;1.60;;;1.50;;
40320;SDS011;26027;51.454;6.628;2022-10-30T09:28:54;1.33;;;1.33;;
40320;SDS011;26027;51.454;6.628;2022-10-30T09:31:20;1.42;;;1.42;;
40320;SDS011;26027;51.454;6.628;2022-10-30T09:33:46;1.50;;;1.40;;
40320;SDS011;26027;51.454;6.628;2022-10-30T09:36:12;1.48;;;1.38;;
40320;SDS011;26027;51.454;6.628;2022-10-30T09:38:38;1.38;;;1.38;;
40320;SDS011;26027;51.454;6.628;2022-10-30T09:53:31;1.20;;;1.20;;
40320;SDS011;26027;51.454;6.628;2022-10-30T09:56:11;1.63;;;1.52;;
40320;SDS011;26027;51.454;6.628;2022-10-30T09:58:48;1.42;;;1.40;;
40320;SDS011;26027;51.454;6.628;2022-10-30T10:06:47;1.30;;;1.30;;
40320;SDS011;26027;51.454;6.628;2022-10-30T10:11:42;1.27;;;1.27;;
40320;SDS011;26027;51.454;6.628;2022-10-30T10:16:49;1.65;;;1.55;;
40320;SDS011;26027;51.454;6.628;2022-10-30T10:19:52;1.55;;;1.50;;
40320;SDS011;26027;51.454;6.628;2022-10-30T10:24:43;1.45;;;1.42;;
40320;SDS011;26027;51.454;6.628;2022-10-30T10:27:36;1.42;;;1.42;;
40320;SDS011;26027;51.454;6.628;2022-10-30T10:30:07;1.40;;;1.40;;
40320;SDS011;26027;51.454;6.628;2022-10-30T10:40:15;1.13;;;1.13;;
40320;SDS011;26027;51.454;6.628;2022-10-30T10:53:12;1.48;;;1.38;;
40320;SDS011;26027;51.454;6.628;2022-10-30T10:55:40;1.55;;;1.45;;
40320;SDS011;26027;51.454;6.628;2022-10-30T10:58:12;1.50;;;1.40;;
40320;SDS011;26027;51.454;6.628;2022-10-30T11:00:40;1.30;;;1.30;;
40320;SDS011;26027;51.454;6.628;2022-10-30T11:03:11;1.42;;;1.40;;
40320;SDS011;26027;51.454;6.628;2022-10-30T11:05:40;1.33;;;1.27;;
40320;SDS011;26027;51.454;6.628;2022-10-30T11:08:14;1.58;;;1.48;;
40320;SDS011;26027;51.454;6.628;2022-10-30T11:10:41;1.60;;;1.50;;
40320;SDS011;26027;51.454;6.628;2022-10-30T11:13:10;1.60;;;1.50;;
40320;SDS011;26027;51.454;6.628;2022-10-30T11:18:06;1.20;;;1.20;;
40320;SDS011;26027;51.454;6.628;2022-10-30T11:20:54;1.40;;;1.40;;
40320;SDS011;26027;51.454;6.628;2022-10-30T11:26:00;1.73;;;1.63;;
40320;SDS011;26027;51.454;6.628;2022-10-30T11:31:21;1.42;;;1.33;;
40320;SDS011;26027;51.454;6.628;2022-10-30T11:33:48;1.40;;;1.40;;
40320;SDS011;26027;51.454;6.628;2022-10-30T11:36:15;1.52;;;1.42;;
40320;SDS011;26027;51.454;6.628;2022-10-30T11:38:42;1.60;;;1.50;;
40320;SDS011;26027;51.454;6.628;2022-10-30T11:41:08;1.27;;;1.27;;
40320;SDS011;26027;51.454;6.628;2022-10-30T11:43:34;1.25;;;1.25;;
40320;SDS011;26027;51.454;6.628;2022-10-30T11:46:02;1.60;;;1.50;;
40320;SDS011;26027;51.454;6.628;2022-10-30T11:48:33;1.40;;;1.30;;
40320;SDS011;26027;51.454;6.628;2022-10-30T11:51:00;1.42;;;1.33;;
40320;SDS011;26027;51.454;6.628;2022-10-30T11:53:27;1.30;;;1.30;;
40320;SDS011;26027;51.454;6.628;2022-10-30T11:55:55;1.30;;;1.30;;
40320;SDS011;26027;51.454;6.628;2022-10-30T11:58:23;1.38;;;1.30;;
40320;SDS011;26027;51.454;6.628;2022-10-30T12:01:25;1.38;;;1.38;;
40320;SDS011;26027;51.454;6.628;2022-10-30T12:03:43;1.40;;;1.40;;
40320;SDS011;26027;51.454;6.628;2022-10-30T12:06:15;1.48;;;1.48;;
40320;SDS011;26027;51.454;6.628;2022-10-30T12:08:54;1.65;;;1.60;;
40320;SDS011;26027;51.454;6.628;2022-10-30T12:11:24;1.10;;;1.10;;
40320;SDS011;26027;51.454;6.628;2022-10-30T12:13:53;1.30;;;1.30;;
40320;SDS011;26027;51.454;6.628;2022-10-30T12:16:19;1.50;;;1.40;;
40320;SDS011;26027;51.454;6.628;2022-10-30T12:19:02;1.45;;;1.40;;
40320;SDS011;26027;51.454;6.628;2022-10-30T12:21:31;1.30;;;1.30;;
40320;SDS011;26027;51.454;6.628;2022-10-30T12:24:00;1.52;;;1.42;;
40320;SDS011;26027;51.454;6.628;2022-10-30T12:26:30;1.20;;;1.20;;
40320;SDS011;26027;51.454;6.628;2022-10-30T12:28:58;1.23;;;1.23;;
40320;SDS011;26027;51.454;6.628;2022-10-30T12:32:13;1.42;;;1.38;;
40320;SDS011;26027;51.454;6.628;2022-10-30T12:34:14;1.58;;;1.48;;
40320;SDS011;26027;51.454;6.628;2022-10-30T12:36:44;1.50;;;1.40;;
40320;SDS011;26027;51.454;6.628;2022-10-30T12:39:14;1.40;;;1.40;;
40320;SDS011;26027;51.454;6.628;2022-10-30T12:41:44;1.40;;;1.38;;
40320;SDS011;26027;51.454;6.628;2022-10-30T12:44:45;1.45;;;1.40;;
40320;SDS011;26027;51.454;6.628;2022-10-30T12:47:12;1.42;;;1.40;;
40320;SDS011;26027;51.454;6.628;2022-10-30T12:49:46;1.20;;;1.20;;
40320;SDS011;26027;51.454;6.628;2022-10-30T12:57:19;1.50;;;1.50;;
40320;SDS011;26027;51.454;6.628;2022-10-30T13:02:18;1.10;;;1.10;;
40320;SDS011;26027;51.454;6.628;2022-10-30T13:04:47;1.38;;;1.30;;
40320;SDS011;26027;51.454;6.628;2022-10-30T13:07:34;1.50;;;1.50;;
40320;SDS011;26027;51.454;6.628;2022-10-30T13:12:42;1.50;;;1.42;;
40320;SDS011;26027;51.454;6.628;2022-10-30T13:15:13;1.20;;;1.20;;
40320;SDS011;26027;51.454;6.628;2022-10-30T13:17:42;1.40;;;1.40;;
40320;SDS011;26027;51.454;6.628;2022-10-30T13:20:10;1.20;;;1.20;;
40320;SDS011;26027;51.454;6.628;2022-10-30T13:22:48;1.77;;;1.67;;
40320;SDS011;26027;51.454;6.628;2022-10-30T13:28:03;1.60;;;1.50;;
40320;SDS011;26027;51.454;6.628;2022-10-30T13:30:35;1.30;;;1.30;;
40320;SDS011;26027;51.454;6.628;2022-10-30T13:38:41;1.30;;;1.30;;
40320;SDS011;26027;51.454;6.628;2022-10-30T13:41:11;1.33;;;1.33;;
40320;SDS011;26027;51.454;6.628;2022-10-30T13:51:36;1.23;;;1.23;;
40320;SDS011;26027;51.454;6.628;2022-10-30T13:54:06;1.55;;;1.45;;
40320;SDS011;26027;51.454;6.628;2022-10-30T13:56:33;1.40;;;1.33;;
40320;SDS011;26027;51.454;6.628;2022-10-30T13:59:05;1.23;;;1.23;;
40320;SDS011;26027;51.454;6.628;2022-10-30T14:14:55;1.10;;;1.10;;
40320;SDS011;26027;51.454;6.628;2022-10-30T14:17:21;1.33;;;1.30;;
40320;SDS011;26027;51.454;6.628;2022-10-30T14:22:32;1.27;;;1.25;;
40320;SDS011;26027;51.454;6.628;2022-10-30T14:24:58;1.23;;;1.23;;
40320;SDS011;26027;51.454;6.628;2022-10-30T14:27:26;1.25;;;1.25;;
40320;SDS011;26027;51.454;6.628;2022-10-30T14:29:53;1.27;;;1.27;;
40320;SDS011;26027;51.454;6.628;2022-10-30T14:35:31;1.17;;;1.17;;
40320;SDS011;26027;51.454;6.628;2022-10-30T14:39:58;1.20;;;1.20;;
40320;SDS011;26027;51.454;6.628;2022-10-30T14:42:51;1.40;;;1.30;;
40320;SDS011;26027;51.454;6.628;2022-10-30T14:45:28;1.50;;;1.40;;
40320;SDS011;26027;51.454;6.628;2022-10-30T14:50:58;1.30;;;1.30;;
40320;SDS011;26027;51.454;6.628;2022-10-30T14:58:40;1.20;;;1.20;;
40320;SDS011;26027;51.454;6.628;2022-10-30T15:01:23;1.20;;;1.20;;
40320;SDS011;26027;51.454;6.628;2022-10-30T15:03:54;1.30;;;1.30;;
40320;SDS011;26027;51.454;6.628;2022-10-30T15:11:42;1.48;;;1.38;;
40320;SDS011;26027;51.454;6.628;2022-10-30T15:14:18;1.40;;;1.40;;
40320;SDS011;26027;51.454;6.628;2022-10-30T15:16:46;1.27;;;1.27;;
40320;SDS011;26027;51.454;6.628;2022-10-30T15:19:14;1.20;;;1.20;;
40320;SDS011;26027;51.454;6.628;2022-10-30T15:21:41;1.35;;;1.30;;
40320;SDS011;26027;51.454;6.628;2022-10-30T15:24:17;1.20;;;1.20;;
40320;SDS011;26027;51.454;6.628;2022-10-30T15:26:45;1.30;;;1.30;;
40320;SDS011;26027;51.454;6.628;2022-10-30T15:29:16;1.25;;;1.25;;
40320;SDS011;26027;51.454;6.628;2022-10-30T15:31:43;1.20;;;1.20;;
40320;SDS011;26027;51.454;6.628;2022-10-30T15:34:21;1.27;;;1.27;;
40320;SDS011;26027;51.454;6.628;2022-10-30T15:36:47;1.20;;;1.20;;
40320;SDS011;26027;51.454;6.628;2022-10-30T15:39:17;1.25;;;1.25;;
40320;SDS011;26027;51.454;6.628;2022-10-30T15:41:50;1.15;;;1.15;;
40320;SDS011;26027;51.454;6.628;2022-10-30T15:44:29;1.23;;;1.23;;
40320;SDS011;26027;51.454;6.628;2022-10-30T15:46:56;1.23;;;1.23;;
40320;SDS011;26027;51.454;6.628;2022-10-30T15:51:51;1.10;;;1.10;;
40320;SDS011;26027;51.454;6.628;2022-10-30T15:54:17;1.25;;;1.25;;
40320;SDS011;26027;51.454;6.628;2022-10-30T15:56:46;1.30;;;1.30;;
40320;SDS011;26027;51.454;6.628;2022-10-30T16:01:50;1.40;;;1.30;;
40320;SDS011;26027;51.454;6.628;2022-10-30T16:04:18;1.10;;;1.10;;
40320;SDS011;26027;51.454;6.628;2022-10-30T16:06:51;1.15;;;1.15;;
40320;SDS011;26027;51.454;6.628;2022-10-30T16:09:18;1.20;;;1.20;;
40320;SDS011;26027;51.454;6.628;2022-10-30T16:11:44;1.42;;;1.33;;
40320;SDS011;26027;51.454;6.628;2022-10-30T16:14:13;1.00;;;1.00;;
40320;SDS011;26027;51.454;6.628;2022-10-30T16:16:41;1.30;;;1.25;;
40320;SDS011;26027;51.454;6.628;2022-10-30T16:19:10;1.30;;;1.30;;
40320;SDS011;26027;51.454;6.628;2022-10-30T16:21:44;1.20;;;1.20;;
40320;SDS011;26027;51.454;6.628;2022-10-30T16:24:10;1.40;;;1.40;;
40320;SDS011;26027;51.454;6.628;2022-10-30T16:26:36;1.08;;;1.08;;
40320;SDS011;26027;51.454;6.628;2022-10-30T16:29:07;1.30;;;1.30;;
40320;SDS011;26027;51.454;6.628;2022-10-30T16:31:35;1.50;;;1.40;;
40320;SDS011;26027;51.454;6.628;2022-10-30T16:34:02;1.38;;;1.35;;
40320;SDS011;26027;51.454;6.628;2022-10-30T16:36:29;0.95;;;0.95;;
40320;SDS011;26027;51.454;6.628;2022-10-30T16:38:56;1.30;;;1.30;;
40320;SDS011;26027;51.454;6.628;2022-10-30T16:41:22;1.17;;;1.17;;
40320;SDS011;26027;51.454;6.628;2022-10-30T16:46:46;1.20;;;1.20;;
40320;SDS011;26027;51.454;6.628;2022-10-30T16:49:15;1.33;;;1.30;;
40320;SDS011;26027;51.454;6.628;2022-10-30T16:51:42;1.20;;;1.20;;
40320;SDS011;26027;51.454;6.628;2022-10-30T16:54:22;1.30;;;1.30;;
40320;SDS011;26027;51.454;6.628;2022-10-30T16:56:49;1.10;;;1.10;;
40320;SDS011;26027;51.454;6.628;2022-10-30T16:59:20;1.35;;;1.35;;
40320;SDS011;26027;51.454;6.628;2022-10-30T17:01:51;1.23;;;1.23;;
40320;SDS011;26027;51.454;6.628;2022-10-30T17:04:18;1.00;;;1.00;;
40320;SDS011;26027;51.454;6.628;2022-10-30T17:06:44;1.27;;;1.17;;
40320;SDS011;26027;51.454;6.628;2022-10-30T17:09:24;1.15;;;1.15;;
40320;SDS011;26027;51.454;6.628;2022-10-30T17:14:29;1.10;;;1.10;;
40320;SDS011;26027;51.454;6.628;2022-10-30T17:17:11;1.20;;;1.20;;
40320;SDS011;26027;51.454;6.628;2022-10-30T17:19:45;1.33;;;1.33;;